createdAt,value
2023-03-22T00:00:17.612Z,12.89
2023-03-22T00:03:06.863Z,12.87
2023-03-22T00:05:35.810Z,12.83
2023-03-22T00:08:07.272Z,12.77
2023-03-22T00:10:38.181Z,12.73
2023-03-22T00:13:10.810Z,12.62
2023-03-22T00:15:39.793Z,12.54
2023-03-22T00:18:08.283Z,12.46
2023-03-22T00:20:39.537Z,12.42
2023-03-22T00:23:09.168Z,12.35
2023-03-22T00:25:38.213Z,12.18
2023-03-22T00:28:08.176Z,12.09
2023-03-22T00:30:37.531Z,11.94
2023-03-22T00:33:06.892Z,11.77
2023-03-22T00:35:36.152Z,11.25
2023-03-22T00:38:14.235Z,11.04
2023-03-22T00:40:44.285Z,11.25
2023-03-22T00:43:14.632Z,11.54
2023-03-22T00:45:43.627Z,11.31
2023-03-22T00:48:13.246Z,10.48
2023-03-22T00:50:42.415Z,9.69
2023-03-22T00:53:11.118Z,9.46
2023-03-22T00:55:40.156Z,9.65
2023-03-22T00:58:08.894Z,9.89
2023-03-22T01:00:39.520Z,10.30
2023-03-22T01:03:08.769Z,10.61
2023-03-22T01:05:38.902Z,10.74
2023-03-22T01:08:09.460Z,10.65
2023-03-22T01:10:39.297Z,10.89
2023-03-22T01:13:08.884Z,10.95
2023-03-22T01:15:39.340Z,11.12
2023-03-22T01:18:07.937Z,11.36
2023-03-22T01:20:37.513Z,11.55
2023-03-22T01:23:06.312Z,11.72
2023-03-22T01:25:35.222Z,11.87
2023-03-22T01:28:03.904Z,11.95
2023-03-22T01:30:33.214Z,12.05
2023-03-22T01:33:03.308Z,12.14
2023-03-22T01:35:34.106Z,12.19
2023-03-22T01:38:02.852Z,12.24
2023-03-22T01:40:31.856Z,12.28
2023-03-22T01:43:01.969Z,12.31
2023-03-22T01:45:41.595Z,12.41
2023-03-22T01:48:20.939Z,12.34
2023-03-22T01:50:59.862Z,12.22
2023-03-22T01:53:33.702Z,12.14
2023-03-22T01:56:03.864Z,12.07
2023-03-22T01:58:37.160Z,12.01
2023-03-22T02:01:09.633Z,11.97
2023-03-22T02:03:52.411Z,11.96
2023-03-22T02:06:22.518Z,11.84
2023-03-22T02:08:58.546Z,11.79
2023-03-22T02:11:33.530Z,11.75
2023-03-22T02:14:27.488Z,11.80
2023-03-22T02:17:22.963Z,11.73
2023-03-22T02:20:38.423Z,11.71
2023-03-22T02:23:44.241Z,11.65
2023-03-22T02:26:46.975Z,11.59
2023-03-22T02:29:22.415Z,11.40
2023-03-22T02:32:34.157Z,11.45
2023-03-22T02:35:35.057Z,11.43
2023-03-22T02:38:37.776Z,11.33
2023-03-22T02:41:15.712Z,11.22
2023-03-22T02:43:56.832Z,11.12
2023-03-22T02:46:31.930Z,11.09
2023-03-22T02:49:07.879Z,11.00
2023-03-22T02:51:42.518Z,10.97
2023-03-22T02:54:19.664Z,10.94
2023-03-22T02:56:55.314Z,10.90
2023-03-22T02:59:27.222Z,10.88
2023-03-22T03:01:59.365Z,10.83
2023-03-22T03:04:32.255Z,10.82
2023-03-22T03:07:07.232Z,10.79
2023-03-22T03:09:37.718Z,10.73
2023-03-22T03:12:16.023Z,10.77
2023-03-22T03:14:44.875Z,10.63
2023-03-22T03:17:26.875Z,10.71
2023-03-22T03:20:12.707Z,10.65
2023-03-22T03:22:56.217Z,10.63
2023-03-22T03:25:35.189Z,10.55
2023-03-22T03:28:11.462Z,10.51
2023-03-22T03:30:48.087Z,10.42
2023-03-22T03:33:21.638Z,10.38
2023-03-22T03:35:56.020Z,10.31
2023-03-22T03:38:30.090Z,10.30
2023-03-22T03:41:05.056Z,10.20
2023-03-22T03:43:37.281Z,10.10
2023-03-22T03:46:08.835Z,10.11
2023-03-22T03:48:43.661Z,10.15
2023-03-22T03:51:12.658Z,9.82
2023-03-22T03:53:42.233Z,9.90
2023-03-22T03:56:11.749Z,9.98
2023-03-22T03:58:47.054Z,9.82
2023-03-22T04:01:19.693Z,9.89
2023-03-22T04:03:59.185Z,9.99
2023-03-22T04:06:43.797Z,9.97
2023-03-22T04:09:18.333Z,10.01
2023-03-22T04:11:51.711Z,10.01
2023-03-22T04:14:22.379Z,10.00
2023-03-22T04:16:54.479Z,9.95
2023-03-22T04:19:24.872Z,9.97
2023-03-22T04:21:53.824Z,9.95
2023-03-22T04:24:23.715Z,9.95
2023-03-22T04:26:54.985Z,9.97
2023-03-22T04:29:32.385Z,9.91
2023-03-22T04:32:17.040Z,9.85
2023-03-22T04:34:46.444Z,9.74
2023-03-22T04:37:18.261Z,9.83
2023-03-22T04:40:09.367Z,9.37
2023-03-22T04:42:48.096Z,9.60
2023-03-22T04:45:29.296Z,9.68
2023-03-22T04:48:03.374Z,9.72
2023-03-22T04:50:34.174Z,9.74
2023-03-22T04:53:05.833Z,9.74
2023-03-22T04:55:35.292Z,9.76
2023-03-22T04:58:04.198Z,9.74
2023-03-22T05:00:34.533Z,9.76
2023-03-22T05:03:04.493Z,9.81
2023-03-22T05:05:51.085Z,9.95
2023-03-22T05:08:21.359Z,9.85
2023-03-22T05:10:52.244Z,9.83
2023-03-22T05:13:22.055Z,9.89
2023-03-22T05:15:52.648Z,9.96
2023-03-22T05:18:26.904Z,10.00
2023-03-22T05:20:59.746Z,9.82
2023-03-22T05:23:28.442Z,9.94
2023-03-22T05:26:01.666Z,10.01
2023-03-22T05:28:31.946Z,10.11
2023-03-22T05:31:25.388Z,10.04
2023-03-22T05:33:59.049Z,10.17
2023-03-22T05:36:31.005Z,10.31
2023-03-22T05:39:16.046Z,10.10
2023-03-22T05:41:46.613Z,10.13
2023-03-22T05:44:15.990Z,9.44
2023-03-22T05:46:56.259Z,9.64
2023-03-22T05:49:31.845Z,9.57
2023-03-22T05:52:04.435Z,9.49
2023-03-22T05:54:47.190Z,9.43
2023-03-22T05:57:17.142Z,9.71
2023-03-22T05:59:45.765Z,9.82
2023-03-22T06:02:22.443Z,10.00
2023-03-22T06:04:52.561Z,9.94
2023-03-22T06:07:22.702Z,10.07
2023-03-22T06:09:59.162Z,9.71
2023-03-22T06:12:31.419Z,9.88
2023-03-22T06:15:18.631Z,10.08
2023-03-22T06:18:12.993Z,9.68
2023-03-22T06:20:45.747Z,9.89
2023-03-22T06:23:22.924Z,9.67
2023-03-22T06:25:51.682Z,9.84
2023-03-22T06:28:21.490Z,10.09
2023-03-22T06:30:52.752Z,10.21
2023-03-22T06:33:32.143Z,10.47
2023-03-22T06:36:07.584Z,10.62
2023-03-22T06:38:52.462Z,10.78
2023-03-22T06:41:21.551Z,10.36
2023-03-22T06:43:52.801Z,10.55
2023-03-22T06:46:41.507Z,9.67
2023-03-22T06:49:29.351Z,9.88
2023-03-22T06:51:59.383Z,9.80
2023-03-22T06:54:29.375Z,10.13
2023-03-22T06:56:57.997Z,10.03
2023-03-22T06:59:27.258Z,10.42
2023-03-22T07:01:56.045Z,10.68
2023-03-22T07:04:25.795Z,10.63
2023-03-22T07:06:56.883Z,10.64
2023-03-22T07:09:40.341Z,11.12
2023-03-22T07:12:10.030Z,11.00
2023-03-22T07:14:39.648Z,10.66
2023-03-22T07:17:46.566Z,10.76
2023-03-22T07:20:16.324Z,10.94
2023-03-22T07:22:47.051Z,11.22
2023-03-22T07:25:16.231Z,11.74
2023-03-22T07:27:46.203Z,11.10
2023-03-22T07:30:16.023Z,11.52
2023-03-22T07:32:47.981Z,11.16
2023-03-22T07:35:18.966Z,11.01
2023-03-22T07:37:52.243Z,11.40
2023-03-22T07:40:27.200Z,12.04
2023-03-22T07:42:58.992Z,12.45
2023-03-22T07:45:46.764Z,11.64
2023-03-22T07:48:39.158Z,12.33
2023-03-22T07:51:43.327Z,11.58
2023-03-22T07:54:22.734Z,11.65
2023-03-22T07:56:59.886Z,11.63
2023-03-22T07:59:28.871Z,12.29
2023-03-22T08:01:58.413Z,12.85
2023-03-22T08:04:32.085Z,12.62
2023-03-22T08:07:11.597Z,13.16
2023-03-22T08:09:41.669Z,13.25
2023-03-22T08:12:10.742Z,12.81
2023-03-22T08:14:40.934Z,13.16
2023-03-22T08:17:17.354Z,13.38
2023-03-22T08:19:46.766Z,12.96
2023-03-22T08:22:26.090Z,12.76
2023-03-22T08:25:19.375Z,12.94
2023-03-22T08:27:49.196Z,13.28
2023-03-22T08:30:18.039Z,12.86
2023-03-22T08:32:47.139Z,12.65
2023-03-22T08:35:15.788Z,12.86
2023-03-22T08:37:44.820Z,12.54
2023-03-22T08:40:13.948Z,11.85
2023-03-22T08:42:48.916Z,11.89
2023-03-22T08:45:18.281Z,12.57
2023-03-22T08:47:54.843Z,12.01
2023-03-22T08:50:26.974Z,12.41
2023-03-22T08:53:13.878Z,12.47
2023-03-22T08:55:46.395Z,12.20
2023-03-22T08:58:19.633Z,12.22
2023-03-22T09:01:07.577Z,13.16
2023-03-22T09:03:45.777Z,13.37
2023-03-22T09:06:15.144Z,13.92
2023-03-22T09:08:45.610Z,14.49
2023-03-22T09:11:18.042Z,14.86
2023-03-22T09:13:51.273Z,13.53
2023-03-22T09:16:20.843Z,13.14
2023-03-22T09:18:50.466Z,13.21
2023-03-22T09:21:23.105Z,13.13
2023-03-22T09:23:55.784Z,13.75
2023-03-22T09:26:31.487Z,13.08
2023-03-22T09:29:03.301Z,13.08
2023-03-22T09:31:32.228Z,12.90
2023-03-22T09:34:16.413Z,12.77
2023-03-22T09:36:45.469Z,12.72
2023-03-22T09:39:16.541Z,12.68
2023-03-22T09:41:51.733Z,12.79
2023-03-22T09:44:29.759Z,12.83
2023-03-22T09:47:02.193Z,12.97
2023-03-22T09:49:52.952Z,12.17
2023-03-22T09:52:22.884Z,12.05
2023-03-22T09:54:53.200Z,12.45
2023-03-22T09:57:30.258Z,12.63
2023-03-22T10:00:11.844Z,13.01
2023-03-22T10:02:54.522Z,13.39
2023-03-22T10:05:30.808Z,12.75
2023-03-22T10:08:33.914Z,12.76
2023-03-22T10:11:03.916Z,12.67
2023-03-22T10:13:40.480Z,13.38
2023-03-22T10:16:14.898Z,13.36
2023-03-22T10:18:48.290Z,13.26
2023-03-22T10:21:20.375Z,13.94
2023-03-22T10:23:56.290Z,14.44
2023-03-22T10:26:30.563Z,13.95
2023-03-22T10:29:03.991Z,13.60
2023-03-22T10:31:35.851Z,14.28
2023-03-22T10:34:08.043Z,14.74
2023-03-22T10:36:40.491Z,15.08
2023-03-22T10:39:18.379Z,15.45
2023-03-22T10:41:49.264Z,15.63
2023-03-22T10:44:21.341Z,16.06
2023-03-22T10:46:53.805Z,16.15
2023-03-22T10:49:28.523Z,16.45
2023-03-22T10:52:01.485Z,16.52
2023-03-22T10:54:30.421Z,16.70
2023-03-22T10:56:59.449Z,15.86
2023-03-22T10:59:46.025Z,15.89
2023-03-22T11:02:23.079Z,16.06
2023-03-22T11:04:53.876Z,16.48
2023-03-22T11:07:32.900Z,16.76
2023-03-22T11:10:24.300Z,16.38
2023-03-22T11:12:56.152Z,16.91
2023-03-22T11:15:28.427Z,17.30
2023-03-22T11:18:06.228Z,17.48
2023-03-22T11:20:36.300Z,17.75
2023-03-22T11:23:07.050Z,18.06
2023-03-22T11:25:38.074Z,17.25
2023-03-22T11:28:17.123Z,17.31
2023-03-22T11:31:00.684Z,17.55
2023-03-22T11:33:31.848Z,17.03
2023-03-22T11:36:03.494Z,17.27
2023-03-22T11:38:38.360Z,17.74
2023-03-22T11:41:13.059Z,18.12
2023-03-22T11:43:48.500Z,17.18
2023-03-22T11:46:20.088Z,16.29
2023-03-22T11:48:52.995Z,16.49
2023-03-22T11:51:30.991Z,16.77
2023-03-22T11:54:07.971Z,16.36
2023-03-22T11:56:42.603Z,16.13
2023-03-22T11:59:16.765Z,15.75
2023-03-22T12:01:50.328Z,15.72
2023-03-22T12:04:26.826Z,15.64
2023-03-22T12:06:59.233Z,15.51
2023-03-22T12:09:39.245Z,16.00
2023-03-22T12:12:15.125Z,16.71
2023-03-22T12:14:51.376Z,16.37
2023-03-22T12:17:30.037Z,15.56
2023-03-22T12:20:08.636Z,16.11
2023-03-22T12:22:42.245Z,16.39
2023-03-22T12:25:17.068Z,16.26
2023-03-22T12:27:51.222Z,16.77
2023-03-22T12:30:25.404Z,17.22
2023-03-22T12:33:01.695Z,17.08
2023-03-22T12:35:36.268Z,17.83
2023-03-22T12:38:19.977Z,18.19
2023-03-22T12:40:50.996Z,17.81
2023-03-22T12:43:33.515Z,18.21
2023-03-22T12:46:09.687Z,18.62
2023-03-22T12:48:46.435Z,17.14
2023-03-22T12:51:17.530Z,17.14
2023-03-22T12:53:48.962Z,17.74
2023-03-22T12:56:21.365Z,18.16
2023-03-22T12:58:56.222Z,18.42
2023-03-22T13:01:35.747Z,18.67
2023-03-22T13:04:31.396Z,19.01
2023-03-22T13:07:13.027Z,19.28
2023-03-22T13:09:43.931Z,19.35
2023-03-22T13:12:32.749Z,19.57
2023-03-22T13:15:41.353Z,19.57
2023-03-22T13:18:38.741Z,18.22
2023-03-22T13:21:15.498Z,17.01
2023-03-22T13:24:01.859Z,17.81
2023-03-22T13:26:39.536Z,17.93
2023-03-22T13:29:12.569Z,18.23
2023-03-22T13:31:45.415Z,17.23
2023-03-22T13:34:19.058Z,16.57
2023-03-22T13:36:53.979Z,16.14
2023-03-22T13:39:25.604Z,16.69
2023-03-22T13:42:19.833Z,17.29
2023-03-22T13:44:59.175Z,17.56
2023-03-22T13:47:34.545Z,17.61
2023-03-22T13:50:11.272Z,17.40
2023-03-22T13:52:43.423Z,17.35
2023-03-22T13:55:41.321Z,17.56
2023-03-22T13:58:33.102Z,17.58
2023-03-22T14:01:02.792Z,16.72
2023-03-22T14:03:35.063Z,17.07
2023-03-22T14:06:15.868Z,17.19
2023-03-22T14:08:47.337Z,16.71
2023-03-22T14:11:26.515Z,15.82
2023-03-22T14:14:00.693Z,16.23
2023-03-22T14:16:37.905Z,16.80
2023-03-22T14:19:08.582Z,16.89
2023-03-22T14:21:40.458Z,16.85
